Time,TemperatureF,DewpointF,PressureIn,WindDirection,WindDirectionDegrees,WindSpeedMPH,WindSpeedGustMPH,Humidity,HourlyPrecipIn,Conditions,Clouds,dailyrainin,SolarRadiationWatts/m^2,SoftwareType,DateUTC
2013-04-17 00:02:00,29.0,26.0,-100.00,NNE,31,0.0,0.0,89,0.00,,,0.00,0.000000,,2013-04-17 05:02:00,
2013-04-17 00:12:00,28.0,26.0,-100.00,East,90,0.0,0.0,91,0.00,,,0.00,0.000000,,2013-04-17 05:12:00,
2013-04-17 00:32:00,28.0,26.0,-100.00,East,90,0.0,0.0,91,0.00,,,0.00,0.000000,,2013-04-17 05:32:00,
2013-04-17 00:43:00,28.0,26.0,-100.00,East,90,0.0,0.0,91,0.00,,,0.00,0.000000,,2013-04-17 05:43:00,
2013-04-17 00:52:00,28.0,26.0,-100.00,East,90,0.0,0.0,91,0.00,,,0.00,0.000000,,2013-04-17 05:52:00,
2013-04-17 01:02:00,28.0,26.0,-100.00,East,90,0.0,0.0,91,0.00,,,0.00,0.000000,,2013-04-17 06:02:00,
2013-04-17 01:12:00,28.0,26.0,-100.00,SE,126,0.0,0.0,92,0.00,,,0.00,0.000000,,2013-04-17 06:12:00,
2013-04-17 01:32:00,28.0,26.0,-100.00,SE,126,0.0,0.0,92,0.00,,,0.00,0.000000,,2013-04-17 06:32:00,
2013-04-17 01:42:00,28.0,26.0,-100.00,SE,126,0.0,0.0,92,0.00,,,0.00,0.000000,,2013-04-17 06:42:00,
2013-04-17 01:52:00,28.0,26.0,-100.00,SE,126,0.0,0.0,92,0.00,,,0.00,0.000000,,2013-04-17 06:52:00,
2013-04-17 02:02:00,28.0,26.0,-100.00,SE,126,0.0,0.0,92,0.00,,,0.00,0.000000,,2013-04-17 07:02:00,
2013-04-17 02:12:00,30.0,28.0,-100.00,NE,52,1.0,4.0,93,0.00,,,0.00,0.000000,,2013-04-17 07:12:00,
2013-04-17 02:42:00,30.0,28.0,-100.00,NE,52,1.0,4.0,93,0.00,,,0.00,0.000000,,2013-04-17 07:42:00,
2013-04-17 02:52:00,30.0,28.0,-100.00,NE,52,1.0,4.0,93,0.00,,,0.00,0.000000,,2013-04-17 07:52:00,
2013-04-17 03:02:00,30.0,28.0,-100.00,NE,52,1.0,4.0,93,0.00,,,0.00,0.000000,,2013-04-17 08:02:00,
2013-04-17 03:12:00,35.0,28.0,-100.00,NE,55,6.0,10.0,74,0.00,,,0.00,0.000000,,2013-04-17 08:12:00,
2013-04-17 03:42:00,35.0,28.0,-100.00,NE,55,6.0,10.0,74,0.00,,,0.00,0.000000,,2013-04-17 08:42:00,
2013-04-17 03:52:00,35.0,28.0,-100.00,NE,55,6.0,10.0,74,0.00,,,0.00,0.000000,,2013-04-17 08:52:00,
2013-04-17 04:02:00,35.0,28.0,-100.00,NE,55,6.0,10.0,74,0.00,,,0.00,0.000000,,2013-04-17 09:02:00,
2013-04-17 04:12:00,34.0,29.0,-100.00,NE,55,7.0,14.0,81,0.00,,,0.00,0.000000,,2013-04-17 09:12:00,
2013-04-17 04:33:00,34.0,29.0,-100.00,NE,55,7.0,14.0,81,0.00,,,0.00,0.000000,,2013-04-17 09:33:00,
2013-04-17 04:42:00,34.0,29.0,-100.00,NE,55,7.0,14.0,81,0.00,,,0.00,0.000000,,2013-04-17 09:42:00,
2013-04-17 04:52:00,34.0,29.0,-100.00,NE,55,7.0,14.0,81,0.00,,,0.00,0.000000,,2013-04-17 09:52:00,
2013-04-17 05:02:00,34.0,29.0,-100.00,NE,55,7.0,14.0,81,0.00,,,0.00,0.000000,,2013-04-17 10:02:00,
2013-04-17 05:12:00,33.0,28.0,-100.00,NE,54,6.0,13.0,82,0.00,,,0.00,0.000000,,2013-04-17 10:12:00,
2013-04-17 05:33:00,33.0,28.0,-100.00,NE,54,6.0,13.0,82,0.00,,,0.00,0.000000,,2013-04-17 10:33:00,
2013-04-17 05:43:00,33.0,28.0,-100.00,NE,54,6.0,13.0,82,0.00,,,0.00,0.000000,,2013-04-17 10:43:00,
2013-04-17 05:53:00,33.0,28.0,-100.00,NE,54,6.0,13.0,82,0.00,,,0.00,0.000000,,2013-04-17 10:53:00,
2013-04-17 06:02:00,33.0,28.0,-100.00,NE,54,6.0,13.0,82,0.00,,,0.00,0.000000,,2013-04-17 11:02:00,
2013-04-17 06:12:00,33.0,28.0,-100.00,ENE,65,5.0,11.0,83,0.00,,,0.00,1.000000,,2013-04-17 11:12:00,
2013-04-17 06:32:00,33.0,28.0,-100.00,ENE,65,5.0,11.0,83,0.00,,,0.00,1.000000,,2013-04-17 11:32:00,
2013-04-17 06:42:00,33.0,28.0,-100.00,ENE,65,5.0,11.0,83,0.00,,,0.00,1.000000,,2013-04-17 11:42:00,
2013-04-17 06:52:00,33.0,28.0,-100.00,ENE,65,5.0,11.0,83,0.00,,,0.00,1.000000,,2013-04-17 11:52:00,
2013-04-17 07:02:00,33.0,28.0,-100.00,ENE,65,5.0,11.0,83,0.00,,,0.00,1.000000,,2013-04-17 12:02:00,
2013-04-17 07:12:00,34.0,28.0,-100.00,ENE,65,8.0,13.0,80,0.00,,,0.00,36.000000,,2013-04-17 12:12:00,
2013-04-17 07:32:00,34.0,28.0,-100.00,ENE,65,8.0,13.0,80,0.00,,,0.00,36.000000,,2013-04-17 12:32:00,
2013-04-17 07:42:00,34.0,28.0,-100.00,ENE,65,8.0,13.0,80,0.00,,,0.00,36.000000,,2013-04-17 12:42:00,
2013-04-17 07:52:00,34.0,28.0,-100.00,ENE,65,8.0,13.0,80,0.00,,,0.00,36.000000,,2013-04-17 12:52:00,
2013-04-17 08:02:00,34.0,28.0,-100.00,ENE,65,8.0,13.0,80,0.00,,,0.00,36.000000,,2013-04-17 13:02:00,
2013-04-17 08:12:00,36.0,29.0,-100.00,East,89,6.0,15.0,75,0.00,,,0.00,88.000000,,2013-04-17 13:12:00,
2013-04-17 08:32:00,36.0,29.0,-100.00,East,89,6.0,15.0,75,0.00,,,0.00,88.000000,,2013-04-17 13:32:00,
2013-04-17 08:42:00,36.0,29.0,-100.00,East,89,6.0,15.0,75,0.00,,,0.00,88.000000,,2013-04-17 13:42:00,
2013-04-17 08:52:00,36.0,29.0,-100.00,East,89,6.0,15.0,75,0.00,,,0.00,88.000000,,2013-04-17 13:52:00,
2013-04-17 09:02:00,36.0,29.0,-100.00,East,89,6.0,15.0,75,0.00,,,0.00,88.000000,,2013-04-17 14:02:00,
2013-04-17 09:12:00,37.0,29.0,-100.00,ENE,76,6.0,14.0,74,0.00,,,0.00,158.000000,,2013-04-17 14:12:00,
2013-04-17 09:32:00,37.0,29.0,-100.00,ENE,76,6.0,14.0,74,0.00,,,0.00,158.000000,,2013-04-17 14:32:00,
2013-04-17 09:43:00,37.0,29.0,-100.00,ENE,76,6.0,14.0,74,0.00,,,0.00,158.000000,,2013-04-17 14:43:00,
2013-04-17 09:52:00,37.0,29.0,-100.00,ENE,76,6.0,14.0,74,0.00,,,0.00,158.000000,,2013-04-17 14:52:00,
2013-04-17 10:02:00,37.0,29.0,-100.00,ENE,76,6.0,14.0,74,0.00,,,0.00,158.000000,,2013-04-17 15:02:00,
2013-04-17 10:12:00,40.0,31.0,-100.00,ENE,73,7.0,17.0,69,0.00,,,0.00,232.000000,,2013-04-17 15:12:00,
2013-04-17 10:33:00,40.0,31.0,-100.00,ENE,73,7.0,17.0,69,0.00,,,0.00,232.000000,,2013-04-17 15:33:00,
2013-04-17 10:43:00,40.0,31.0,-100.00,ENE,73,7.0,17.0,69,0.00,,,0.00,232.000000,,2013-04-17 15:43:00,
2013-04-17 10:53:00,40.0,31.0,-100.00,ENE,73,7.0,17.0,69,0.00,,,0.00,232.000000,,2013-04-17 15:53:00,
2013-04-17 11:03:00,40.0,31.0,-100.00,ENE,73,7.0,17.0,69,0.00,,,0.00,232.000000,,2013-04-17 16:03:00,
2013-04-17 11:12:00,40.0,30.0,-100.00,East,86,10.0,20.0,68,0.00,,,0.00,164.000000,,2013-04-17 16:12:00,
2013-04-17 11:32:00,40.0,30.0,-100.00,East,86,10.0,20.0,68,0.00,,,0.00,164.000000,,2013-04-17 16:32:00,
2013-04-17 11:42:00,40.0,30.0,-100.00,East,86,10.0,20.0,68,0.00,,,0.00,164.000000,,2013-04-17 16:42:00,
2013-04-17 11:52:00,40.0,30.0,-100.00,East,86,10.0,20.0,68,0.00,,,0.00,164.000000,,2013-04-17 16:52:00,
2013-04-17 12:02:00,40.0,30.0,-100.00,East,86,10.0,20.0,68,0.00,,,0.00,164.000000,,2013-04-17 17:02:00,
2013-04-17 12:12:00,40.0,31.0,-100.00,East,93,5.0,16.0,69,0.00,,,0.00,114.000000,,2013-04-17 17:12:00,
2013-04-17 12:33:00,40.0,31.0,-100.00,East,93,5.0,16.0,69,0.00,,,0.00,114.000000,,2013-04-17 17:33:00,
2013-04-17 12:42:00,40.0,31.0,-100.00,East,93,5.0,16.0,69,0.00,,,0.00,114.000000,,2013-04-17 17:42:00,
2013-04-17 12:52:00,40.0,31.0,-100.00,East,93,5.0,16.0,69,0.00,,,0.00,114.000000,,2013-04-17 17:52:00,
2013-04-17 13:02:00,40.0,31.0,-100.00,East,93,5.0,16.0,69,0.00,,,0.00,114.000000,,2013-04-17 18:02:00,
2013-04-17 13:12:00,39.0,33.0,-100.00,ENE,63,5.0,14.0,79,0.01,,,0.01,56.000000,,2013-04-17 18:12:00,
2013-04-17 13:42:00,39.0,33.0,-100.00,ENE,63,5.0,14.0,79,0.01,,,0.01,56.000000,,2013-04-17 18:42:00,
2013-04-17 13:52:00,39.0,33.0,-100.00,ENE,63,5.0,14.0,79,0.01,,,0.01,56.000000,,2013-04-17 18:52:00,
2013-04-17 14:02:00,39.0,33.0,-100.00,ENE,63,5.0,14.0,79,0.01,,,0.01,56.000000,,2013-04-17 19:02:00,
2013-04-17 14:12:00,38.0,35.0,-100.00,ENE,62,3.0,10.0,90,0.12,,,0.13,37.000000,,2013-04-17 19:12:00,
2013-04-17 14:42:00,38.0,35.0,-100.00,ENE,62,3.0,10.0,90,0.12,,,0.13,37.000000,,2013-04-17 19:42:00,
2013-04-17 14:52:00,38.0,35.0,-100.00,ENE,62,3.0,10.0,90,0.12,,,0.13,37.000000,,2013-04-17 19:52:00,
2013-04-17 15:02:00,38.0,35.0,-100.00,ENE,62,3.0,10.0,90,0.12,,,0.13,37.000000,,2013-04-17 20:02:00,
2013-04-17 15:12:00,38.0,36.0,-100.00,ENE,63,9.0,17.0,92,0.07,,,0.20,109.000000,,2013-04-17 20:12:00,
2013-04-17 15:33:00,38.0,36.0,-100.00,ENE,63,9.0,17.0,92,0.07,,,0.20,109.000000,,2013-04-17 20:33:00,
2013-04-17 15:42:00,38.0,36.0,-100.00,ENE,63,9.0,17.0,92,0.07,,,0.20,109.000000,,2013-04-17 20:42:00,
2013-04-17 15:52:00,38.0,36.0,-100.00,ENE,63,9.0,17.0,92,0.07,,,0.20,109.000000,,2013-04-17 20:52:00,
2013-04-17 16:02:00,38.0,36.0,-100.00,ENE,63,9.0,17.0,92,0.07,,,0.20,109.000000,,2013-04-17 21:02:00,
2013-04-17 16:12:00,39.0,35.0,-100.00,East,79,10.0,19.0,87,0.01,,,0.21,237.000000,,2013-04-17 21:12:00,
2013-04-17 16:43:00,39.0,35.0,-100.00,East,79,10.0,19.0,87,0.01,,,0.21,237.000000,,2013-04-17 21:43:00,
2013-04-17 16:53:00,39.0,35.0,-100.00,East,79,10.0,19.0,87,0.01,,,0.21,237.000000,,2013-04-17 21:53:00,
2013-04-17 17:02:00,39.0,35.0,-100.00,East,79,10.0,19.0,87,0.01,,,0.21,237.000000,,2013-04-17 22:02:00,
2013-04-17 17:12:00,38.0,34.0,-100.00,ENE,72,7.0,19.0,85,0.00,,,0.21,113.000000,,2013-04-17 22:12:00,
2013-04-17 17:43:00,38.0,34.0,-100.00,ENE,72,7.0,19.0,85,0.00,,,0.21,113.000000,,2013-04-17 22:43:00,
2013-04-17 17:53:00,38.0,34.0,-100.00,ENE,72,7.0,19.0,85,0.00,,,0.21,113.000000,,2013-04-17 22:53:00,
2013-04-17 18:02:00,38.0,34.0,-100.00,ENE,72,7.0,19.0,85,0.00,,,0.21,113.000000,,2013-04-17 23:02:00,
2013-04-17 18:12:00,38.0,34.0,-100.00,ENE,75,7.0,15.0,86,0.00,,,0.21,55.000000,,2013-04-17 23:12:00,
2013-04-17 18:32:00,38.0,34.0,-100.00,ENE,75,7.0,15.0,86,0.00,,,0.21,55.000000,,2013-04-17 23:32:00,
2013-04-17 18:42:00,38.0,34.0,-100.00,ENE,75,7.0,15.0,86,0.00,,,0.21,55.000000,,2013-04-17 23:42:00,
2013-04-17 18:52:00,38.0,34.0,-100.00,ENE,75,7.0,15.0,86,0.00,,,0.21,55.000000,,2013-04-17 23:52:00,
2013-04-17 19:02:00,38.0,34.0,-100.00,ENE,75,7.0,15.0,86,0.00,,,0.21,55.000000,,2013-04-18 00:02:00,
2013-04-17 20:12:00,37.0,34.0,-100.00,ENE,62,8.0,16.0,88,-99.99,,,0.21,1.000000,,2013-04-18 01:12:00,
2013-04-17 20:32:00,37.0,34.0,-100.00,ENE,62,8.0,16.0,88,-99.99,,,0.21,1.000000,,2013-04-18 01:32:00,
2013-04-17 20:42:00,37.0,34.0,-100.00,ENE,62,8.0,16.0,88,-99.99,,,0.21,1.000000,,2013-04-18 01:42:00,
2013-04-17 20:52:00,37.0,34.0,-100.00,ENE,62,8.0,16.0,88,-99.99,,,0.21,1.000000,,2013-04-18 01:52:00,
2013-04-17 21:02:00,37.0,34.0,-100.00,ENE,62,8.0,16.0,88,-99.99,,,0.21,1.000000,,2013-04-18 02:02:00,
2013-04-17 21:12:00,37.0,34.0,-100.00,ENE,75,5.0,17.0,90,0.00,,,-99.99,0.000000,,2013-04-18 02:12:00,
2013-04-17 21:32:00,37.0,34.0,-100.00,ENE,75,5.0,17.0,90,0.00,,,-99.99,0.000000,,2013-04-18 02:32:00,
2013-04-17 21:42:00,37.0,34.0,-100.00,ENE,75,5.0,17.0,90,0.00,,,-99.99,0.000000,,2013-04-18 02:42:00,
2013-04-17 21:52:00,37.0,34.0,-100.00,ENE,75,5.0,17.0,90,0.00,,,-99.99,0.000000,,2013-04-18 02:52:00,
2013-04-17 22:02:00,37.0,34.0,-100.00,ENE,75,5.0,17.0,90,0.00,,,-99.99,0.000000,,2013-04-18 03:02:00,
2013-04-17 22:12:00,38.0,36.0,-100.00,NE,53,6.0,11.0,91,0.00,,,0.21,0.000000,,2013-04-18 03:12:00,
2013-04-17 22:33:00,38.0,36.0,-100.00,NE,53,6.0,11.0,91,0.00,,,0.21,0.000000,,2013-04-18 03:33:00,
2013-04-17 22:43:00,38.0,36.0,-100.00,NE,53,6.0,11.0,91,0.00,,,0.21,0.000000,,2013-04-18 03:43:00,
2013-04-17 22:53:00,38.0,36.0,-100.00,NE,53,6.0,11.0,91,0.00,,,0.21,0.000000,,2013-04-18 03:53:00,
2013-04-17 23:03:00,38.0,36.0,-100.00,NE,53,6.0,11.0,91,0.00,,,0.21,0.000000,,2013-04-18 04:03:00,
2013-04-17 23:12:00,38.0,36.0,-100.00,ENE,68,5.0,13.0,91,0.01,,,0.22,0.000000,,2013-04-18 04:12:00,
2013-04-17 23:43:00,38.0,36.0,-100.00,ENE,68,5.0,13.0,91,0.01,,,0.22,0.000000,,2013-04-18 04:43:00,
2013-04-17 23:53:00,38.0,36.0,-100.00,ENE,68,5.0,13.0,91,0.01,,,0.22,0.000000,,2013-04-18 04:53:00,